Terminal Aerodrome Forecast
Issued by NWS

Home | Current Version | Previous Version | Text Only | Print | Product List | Glossary On
Versions: 1 2 3 4 5 6 7 8 9 10 11 12
858
FTUS46 KHNX 171128
TAFMCE
TAF
KMCE 171128Z 1712/1812 VRB03KT P6SM BKN200
     FM171800 VRB04KT P6SM SCT120 BKN200
     FM180000 31006KT P6SM SCT200=

USA.gov is the U.S. government's official web portal to all federal, state and local government web resources and services.